createdAt,value
2023-05-25T00:01:03.103Z,14.20
2023-05-25T00:03:33.252Z,14.20
2023-05-25T00:06:26.426Z,14.60
2023-05-25T00:08:57.611Z,14.30
2023-05-25T00:11:27.129Z,14.10
2023-05-25T00:14:04.319Z,14.10
2023-05-25T00:16:42.468Z,14.10
2023-05-25T00:19:11.518Z,14.10
2023-05-25T00:21:42.728Z,14.20
2023-05-25T00:24:12.337Z,14.30
2023-05-25T00:26:44.361Z,14.30
2023-05-25T00:29:22.447Z,14.20
2023-05-25T00:31:52.315Z,14.10
2023-05-25T00:34:22.364Z,14.20
2023-05-25T00:36:51.241Z,14.40
2023-05-25T00:39:22.027Z,14.30
2023-05-25T00:41:52.205Z,14.10
2023-05-25T00:44:29.625Z,14.10
2023-05-25T00:46:58.478Z,14.10
2023-05-25T00:49:28.920Z,14.10
2023-05-25T00:52:24.972Z,14.30
2023-05-25T00:55:12.097Z,14.40
2023-05-25T00:57:56.598Z,14.20
2023-05-25T01:00:27.725Z,14.30
2023-05-25T01:06:41.811Z,14.20
2023-05-25T01:09:18.460Z,14.20
2023-05-25T01:11:53.060Z,14.20
2023-05-25T01:14:33.709Z,14.10
2023-05-25T01:20:08.989Z,14.10
2023-05-25T01:23:10.343Z,14.10
2023-05-25T01:25:47.854Z,14.00
2023-05-25T01:28:31.828Z,13.90
2023-05-25T01:31:04.742Z,13.90
2023-05-25T01:33:45.502Z,13.90
2023-05-25T01:36:19.391Z,14.10
2023-05-25T01:38:56.912Z,14.10
2023-05-25T01:41:29.437Z,14.20
2023-05-25T01:44:01.189Z,14.20
2023-05-25T01:46:46.402Z,14.20
2023-05-25T01:50:32.811Z,14.20
2023-05-25T01:53:54.762Z,14.10
2023-05-25T01:56:33.738Z,14.10
2023-05-25T01:59:37.297Z,14.10
2023-05-25T02:02:13.721Z,14.10
2023-05-25T02:04:50.095Z,14.20
2023-05-25T02:07:27.113Z,14.30
2023-05-25T02:10:00.448Z,14.10
2023-05-25T02:12:41.586Z,14.10
2023-05-25T02:15:25.792Z,14.10
2023-05-25T02:18:16.224Z,14.00
2023-05-25T02:20:44.542Z,14.00
2023-05-25T02:23:23.336Z,14.00
2023-05-25T02:26:13.919Z,13.90
2023-05-25T02:28:51.738Z,13.90
2023-05-25T02:31:26.246Z,13.80
2023-05-25T02:36:46.628Z,13.80
2023-05-25T02:39:21.520Z,13.90
2023-05-25T02:41:49.160Z,13.90
2023-05-25T02:44:30.366Z,14.00
2023-05-25T02:47:28.905Z,14.10
2023-05-25T02:50:06.623Z,14.00
2023-05-25T02:52:55.580Z,13.90
2023-05-25T02:55:35.018Z,13.80
2023-05-25T02:58:13.598Z,13.60
2023-05-25T03:00:49.979Z,13.50
2023-05-25T03:03:54.443Z,13.90
2023-05-25T03:06:31.933Z,14.00
2023-05-25T03:09:28.299Z,13.90
2023-05-25T03:11:58.871Z,13.80
2023-05-25T03:14:42.994Z,13.60
2023-05-25T03:17:28.867Z,13.60
2023-05-25T03:20:30.249Z,13.40
2023-05-25T03:23:24.675Z,13.40
2023-05-25T03:25:59.396Z,13.30
2023-05-25T03:28:44.778Z,13.00
2023-05-25T03:31:29.898Z,12.80
2023-05-25T03:34:43.645Z,12.60
2023-05-25T03:37:29.151Z,12.50
2023-05-25T03:40:18.128Z,12.50
2023-05-25T03:43:26.872Z,12.40
2023-05-25T03:45:58.970Z,12.30
2023-05-25T03:48:26.279Z,12.30
2023-05-25T03:50:56.354Z,12.30
2023-05-25T03:53:31.874Z,12.30
2023-05-25T03:56:14.087Z,12.30
2023-05-25T03:58:46.132Z,12.10
2023-05-25T04:01:40.351Z,12.10
2023-05-25T04:04:51.388Z,12.50
2023-05-25T04:07:53.962Z,12.70
2023-05-25T04:10:45.510Z,12.70
2023-05-25T04:13:24.694Z,12.80
2023-05-25T04:15:52.866Z,12.90
2023-05-25T04:18:59.083Z,12.90
2023-05-25T04:21:37.823Z,13.00
2023-05-25T04:24:51.705Z,13.00
2023-05-25T04:27:26.822Z,13.10
2023-05-25T04:30:34.320Z,13.30
2023-05-25T04:33:15.890Z,13.30
2023-05-25T04:39:33.875Z,13.40
2023-05-25T04:42:15.021Z,13.50
2023-05-25T04:45:20.327Z,13.50
2023-05-25T04:48:02.062Z,13.50
2023-05-25T04:50:32.171Z,13.60
2023-05-25T04:53:32.932Z,13.70
2023-05-25T04:56:04.446Z,13.80
2023-05-25T04:58:38.916Z,13.90
2023-05-25T05:01:44.707Z,14.00
2023-05-25T05:04:39.032Z,14.00
2023-05-25T05:07:25.473Z,13.80
2023-05-25T05:10:34.641Z,13.60
2023-05-25T05:13:27.207Z,13.80
2023-05-25T05:15:57.522Z,13.80
2023-05-25T05:18:47.373Z,14.00
2023-05-25T05:21:31.046Z,13.90
2023-05-25T05:24:24.896Z,14.00
2023-05-25T05:27:01.574Z,14.10
2023-05-25T05:29:45.297Z,14.10
2023-05-25T05:32:46.969Z,14.10
2023-05-25T05:35:24.656Z,14.10
2023-05-25T05:38:11.267Z,13.90
2023-05-25T05:40:42.345Z,13.80
2023-05-25T05:43:30.563Z,13.40
2023-05-25T05:46:06.831Z,13.30
2023-05-25T05:48:45.523Z,13.20
2023-05-25T05:51:34.639Z,13.30
2023-05-25T05:54:40.199Z,13.50
2023-05-25T06:00:43.578Z,13.50
2023-05-25T06:03:25.160Z,13.50
2023-05-25T06:05:54.485Z,13.50
2023-05-25T06:08:45.845Z,13.40
2023-05-25T06:11:32.041Z,13.50
2023-05-25T06:14:21.203Z,13.50
2023-05-25T06:20:03.605Z,13.50
2023-05-25T06:22:44.544Z,13.70
2023-05-25T06:25:14.795Z,13.50
2023-05-25T06:27:46.292Z,13.50
2023-05-25T06:30:28.642Z,13.60
2023-05-25T06:33:05.785Z,13.60
2023-05-25T06:36:24.183Z,13.70
2023-05-25T06:38:58.133Z,14.00
2023-05-25T06:41:27.387Z,14.30
2023-05-25T06:43:59.563Z,14.80
2023-05-25T06:46:29.160Z,15.20
2023-05-25T06:49:01.940Z,15.60
2023-05-25T06:51:32.603Z,15.80
2023-05-25T06:54:01.916Z,16.10
2023-05-25T06:56:38.837Z,16.20
2023-05-25T06:59:10.687Z,15.90
2023-05-25T07:01:42.084Z,16.00
2023-05-25T07:04:11.712Z,15.80
2023-05-25T07:06:44.622Z,15.70
2023-05-25T07:09:14.368Z,15.90
2023-05-25T07:11:52.606Z,16.30
2023-05-25T07:14:20.826Z,16.60
2023-05-25T07:16:53.673Z,16.60
2023-05-25T07:19:22.180Z,16.60
2023-05-25T07:21:50.587Z,16.70
2023-05-25T07:24:26.787Z,16.80
2023-05-25T07:26:59.952Z,16.90
2023-05-25T07:29:29.415Z,16.90
2023-05-25T07:31:59.627Z,17.40
2023-05-25T07:34:36.913Z,17.60
2023-05-25T07:37:05.426Z,18.10
2023-05-25T07:39:34.732Z,18.40
2023-05-25T07:42:03.373Z,18.50
2023-05-25T07:44:43.035Z,18.70
2023-05-25T07:47:13.251Z,18.90
2023-05-25T07:49:49.547Z,19.00
2023-05-25T07:52:20.049Z,18.40
2023-05-25T07:54:56.093Z,18.50
2023-05-25T07:57:28.096Z,18.80
2023-05-25T08:00:03.151Z,19.10
2023-05-25T08:02:31.722Z,19.40
2023-05-25T08:05:05.440Z,19.60
2023-05-25T08:07:48.251Z,19.70
2023-05-25T08:10:19.254Z,20.00
2023-05-25T08:12:50.101Z,20.20
2023-05-25T08:15:21.706Z,20.30
2023-05-25T08:17:58.885Z,20.20
2023-05-25T08:20:39.644Z,20.40
2023-05-25T08:23:13.917Z,20.30
2023-05-25T08:25:48.211Z,20.20
2023-05-25T08:28:22.698Z,20.40
2023-05-25T08:30:57.009Z,20.10
2023-05-25T08:33:26.239Z,19.70
2023-05-25T08:36:02.097Z,20.10
2023-05-25T08:38:44.415Z,20.20
2023-05-25T08:41:18.791Z,20.40
2023-05-25T08:43:54.794Z,20.80
2023-05-25T08:46:32.897Z,20.70
2023-05-25T08:49:11.585Z,20.70
2023-05-25T08:51:57.697Z,20.60
2023-05-25T08:54:37.109Z,20.60
2023-05-25T08:58:02.803Z,20.80
2023-05-25T09:00:39.700Z,20.90
2023-05-25T09:03:18.363Z,21.00
2023-05-25T09:05:47.968Z,21.10
2023-05-25T09:08:36.484Z,21.20
2023-05-25T09:11:10.258Z,21.50
2023-05-25T09:13:41.313Z,21.80
2023-05-25T09:16:13.000Z,21.90
2023-05-25T09:18:44.091Z,21.60
2023-05-25T09:21:14.095Z,21.20
2023-05-25T09:23:42.268Z,20.30
2023-05-25T09:26:13.087Z,20.30
2023-05-25T09:28:51.604Z,20.90
2023-05-25T09:31:22.012Z,21.40
2023-05-25T09:33:56.224Z,21.80
2023-05-25T09:36:34.002Z,22.00
2023-05-25T09:39:12.623Z,22.10
2023-05-25T09:41:44.284Z,21.50
2023-05-25T09:44:21.582Z,20.90
2023-05-25T09:46:52.091Z,20.50
2023-05-25T09:49:21.640Z,20.50
2023-05-25T09:51:52.851Z,20.30
2023-05-25T09:54:23.735Z,20.30
2023-05-25T09:56:52.444Z,20.60
2023-05-25T09:59:22.078Z,21.00
2023-05-25T10:01:57.286Z,21.20
2023-05-25T10:04:35.483Z,21.60
2023-05-25T13:20:17.695Z,23.20
2023-05-25T13:22:47.480Z,23.20
2023-05-25T13:25:15.528Z,23.40
2023-05-25T13:27:49.682Z,23.60
2023-05-25T13:30:17.534Z,23.80
2023-05-25T13:32:45.072Z,23.60
2023-05-25T13:35:19.453Z,23.60
2023-05-25T13:37:47.499Z,23.50
2023-05-25T13:40:14.980Z,23.70
2023-05-25T13:42:42.169Z,24.20
2023-05-25T13:45:10.333Z,24.40
2023-05-25T13:47:38.062Z,24.50
2023-05-25T13:50:06.414Z,24.50
2023-05-25T13:52:33.539Z,24.80
2023-05-25T13:55:00.788Z,24.90
2023-05-25T13:57:27.907Z,24.70
2023-05-25T13:59:55.114Z,24.50
2023-05-25T14:02:22.378Z,24.50
2023-05-25T14:04:49.539Z,24.40
2023-05-25T14:07:16.686Z,24.40
2023-05-25T14:09:43.985Z,24.50
2023-05-25T14:12:13.522Z,24.40
2023-05-25T14:14:41.480Z,24.30
2023-05-25T14:17:08.860Z,24.20
2023-05-25T14:19:36.124Z,24.10
2023-05-25T14:22:13.399Z,24.00
2023-05-25T14:24:41.840Z,23.80
2023-05-25T14:27:09.436Z,23.60
2023-05-25T14:29:37.361Z,23.70
2023-05-25T14:32:05.017Z,23.70
2023-05-25T14:34:32.356Z,23.70
2023-05-25T14:36:59.537Z,23.90
2023-05-25T14:39:26.719Z,24.20
2023-05-25T14:41:53.962Z,24.30
2023-05-25T14:44:21.246Z,24.30
2023-05-25T14:46:48.442Z,24.60
2023-05-25T14:49:17.097Z,24.20
2023-05-25T14:51:44.226Z,23.40
2023-05-25T14:54:13.730Z,23.10
2023-05-25T14:56:41.234Z,23.10
2023-05-25T14:59:08.569Z,23.10
2023-05-25T15:01:36.238Z,23.10
2023-05-25T15:04:04.351Z,22.90
2023-05-25T15:06:34.624Z,22.90
2023-05-25T15:09:02.080Z,23.30
2023-05-25T15:11:29.301Z,23.40
2023-05-25T15:13:58.004Z,23.60
2023-05-25T15:16:25.535Z,24.10
2023-05-25T15:18:52.980Z,24.30
2023-05-25T15:21:20.150Z,24.20
2023-05-25T15:23:47.402Z,23.90
2023-05-25T15:26:14.578Z,24.00
2023-05-25T15:28:41.700Z,24.00
2023-05-25T15:31:09.126Z,24.10
2023-05-25T15:33:51.966Z,24.40
2023-05-25T15:36:21.287Z,24.80
2023-05-25T15:38:49.663Z,25.00
2023-05-25T15:41:17.909Z,25.00
2023-05-25T15:43:56.706Z,24.90
2023-05-25T15:46:24.964Z,25.00
2023-05-25T15:48:52.108Z,25.20
2023-05-25T15:51:19.534Z,24.50
2023-05-25T15:53:47.703Z,23.60
2023-05-25T15:56:25.966Z,23.60
2023-05-25T15:59:03.450Z,23.80
2023-05-25T16:01:35.506Z,23.80
2023-05-25T16:04:09.622Z,24.20
2023-05-25T16:06:38.739Z,24.50
2023-05-25T16:09:10.089Z,24.30
2023-05-25T16:11:40.532Z,24.00
2023-05-25T16:14:11.285Z,23.90
2023-05-25T16:16:48.434Z,23.90
2023-05-25T16:19:26.009Z,23.80
2023-05-25T16:21:53.599Z,23.90
2023-05-25T16:24:25.565Z,24.10
2023-05-25T16:26:57.863Z,24.30
2023-05-25T16:29:34.299Z,23.80
2023-05-25T16:32:14.036Z,23.30
2023-05-25T16:34:45.395Z,23.00
2023-05-25T16:37:13.568Z,22.70
2023-05-25T16:39:42.334Z,22.60
2023-05-25T16:42:11.350Z,22.60
2023-05-25T16:44:47.582Z,22.50
2023-05-25T16:47:26.483Z,22.40
2023-05-25T16:50:03.188Z,22.20
2023-05-25T16:52:34.140Z,22.10
2023-05-25T16:55:03.683Z,22.10
2023-05-25T16:57:35.288Z,22.10
2023-05-25T17:00:12.591Z,22.00
2023-05-25T17:02:43.992Z,21.90
2023-05-25T17:05:11.649Z,21.90
2023-05-25T17:07:51.074Z,22.00
2023-05-25T17:10:21.811Z,21.90
2023-05-25T17:12:51.711Z,21.80
2023-05-25T17:15:20.434Z,21.70
2023-05-25T17:17:52.678Z,21.80
2023-05-25T17:20:22.565Z,21.70
2023-05-25T17:22:56.606Z,21.70
2023-05-25T17:25:26.291Z,21.60
2023-05-25T17:27:57.651Z,21.60
2023-05-25T17:30:35.071Z,21.60
2023-05-25T17:33:06.023Z,21.60
2023-05-25T17:35:38.392Z,21.60
2023-05-25T17:38:05.892Z,21.70
2023-05-25T17:40:38.539Z,21.70
2023-05-25T17:43:09.725Z,21.40
2023-05-25T17:45:46.915Z,21.30
2023-05-25T17:48:19.328Z,21.10
2023-05-25T17:50:47.717Z,20.80
2023-05-25T17:53:17.738Z,20.60
2023-05-25T17:55:46.987Z,20.40
2023-05-25T17:58:18.478Z,20.30
2023-05-25T18:00:50.899Z,20.20
2023-05-25T18:03:21.619Z,20.10
2023-05-25T18:05:50.671Z,20.10
2023-05-25T18:08:21.949Z,20.10
2023-05-25T18:10:54.322Z,20.00
2023-05-25T18:13:23.283Z,19.90
2023-05-25T18:16:00.902Z,19.80
2023-05-25T18:18:36.818Z,19.70
2023-05-25T18:21:06.734Z,19.70
2023-05-25T18:23:36.559Z,19.60
2023-05-25T18:26:05.994Z,19.60
2023-05-25T18:28:34.902Z,19.60
2023-05-25T18:31:02.125Z,19.60
2023-05-25T18:33:31.239Z,19.60
2023-05-25T18:36:00.286Z,19.40
2023-05-25T18:38:30.736Z,19.50
2023-05-25T18:41:01.310Z,19.40
2023-05-25T18:43:30.038Z,19.50
2023-05-25T18:45:57.178Z,19.40
2023-05-25T18:48:27.481Z,19.40
2023-05-25T18:50:56.748Z,19.40
2023-05-25T18:53:27.240Z,19.40
2023-05-25T18:55:58.555Z,19.40
2023-05-25T18:58:27.207Z,19.30
2023-05-25T19:00:57.806Z,19.30
2023-05-25T19:03:28.326Z,19.30
2023-05-25T19:06:07.585Z,19.20
2023-05-25T19:08:37.329Z,19.20
2023-05-25T19:11:12.000Z,19.10
2023-05-25T19:13:42.265Z,19.20
2023-05-25T19:16:13.405Z,19.10
2023-05-25T19:18:42.640Z,19.00
2023-05-25T19:21:14.258Z,19.00
2023-05-25T19:23:46.029Z,19.00
2023-05-25T19:26:14.826Z,18.90
2023-05-25T19:28:43.602Z,18.80
2023-05-25T19:31:13.784Z,18.90
2023-05-25T19:33:45.188Z,18.90
2023-05-25T19:36:24.178Z,18.90
2023-05-25T19:39:02.223Z,18.80
2023-05-25T19:41:32.574Z,18.80
2023-05-25T19:44:01.338Z,18.90
2023-05-25T19:46:32.383Z,18.90
2023-05-25T19:49:09.179Z,18.90
2023-05-25T19:51:38.273Z,18.80
2023-05-25T19:54:12.058Z,18.80
2023-05-25T19:56:41.371Z,18.90
2023-05-25T19:59:13.176Z,18.90
2023-05-25T20:01:43.700Z,18.80
2023-05-25T20:04:12.689Z,19.00
2023-05-25T20:06:49.223Z,18.90
2023-05-25T20:09:30.602Z,18.70
2023-05-25T20:12:07.517Z,18.70
2023-05-25T20:14:39.260Z,18.60
2023-05-25T20:17:09.594Z,18.40
2023-05-25T20:19:38.050Z,18.40
2023-05-25T20:22:08.785Z,18.40
2023-05-25T20:24:38.945Z,18.50
2023-05-25T20:27:09.204Z,18.60
2023-05-25T20:29:39.436Z,18.60
2023-05-25T20:32:11.601Z,18.70
2023-05-25T20:34:47.561Z,18.70
2023-05-25T20:37:18.547Z,18.80
2023-05-25T20:39:46.132Z,18.80
2023-05-25T20:42:23.746Z,18.80
2023-05-25T20:44:53.466Z,18.70
2023-05-25T20:47:29.653Z,18.60
2023-05-25T20:50:02.112Z,18.70
2023-05-25T20:52:36.237Z,18.80
2023-05-25T20:55:06.607Z,19.00
2023-05-25T20:57:35.167Z,19.10
2023-05-25T21:00:08.098Z,18.80
2023-05-25T21:02:37.689Z,18.70
2023-05-25T21:05:08.263Z,18.60
2023-05-25T21:07:38.187Z,18.50
2023-05-25T21:10:10.216Z,18.30
2023-05-25T21:12:38.670Z,18.30
2023-05-25T21:15:11.918Z,18.40
2023-05-25T21:17:42.544Z,18.50
2023-05-25T21:20:10.294Z,18.60
2023-05-25T21:22:41.526Z,18.70
2023-05-25T21:25:11.760Z,18.70
2023-05-25T21:27:39.918Z,18.70
2023-05-25T21:30:08.884Z,18.90
2023-05-25T21:32:37.923Z,18.70
2023-05-25T21:35:05.735Z,18.50
2023-05-25T21:37:42.969Z,18.40
2023-05-25T21:40:12.511Z,18.40
2023-05-25T21:42:41.068Z,18.40
2023-05-25T21:45:10.113Z,18.50
2023-05-25T21:47:38.568Z,18.30
2023-05-25T21:50:06.519Z,18.30
2023-05-25T21:52:46.518Z,18.20
2023-05-25T21:55:15.066Z,18.30
2023-05-25T21:57:46.444Z,18.30
2023-05-25T22:00:18.511Z,18.20
2023-05-25T22:02:49.442Z,18.30
2023-05-25T22:05:20.509Z,18.40
2023-05-25T22:07:51.366Z,18.40
2023-05-25T22:10:22.661Z,18.30
2023-05-25T22:12:53.695Z,18.30
2023-05-25T22:15:30.066Z,18.30
2023-05-25T22:18:01.690Z,18.40
2023-05-25T22:20:31.903Z,18.30
2023-05-25T22:23:01.868Z,18.30
2023-05-25T22:25:32.050Z,18.30
2023-05-25T22:28:04.713Z,18.50
2023-05-25T22:30:33.901Z,18.50
2023-05-25T22:33:02.894Z,18.70
2023-05-25T22:35:31.998Z,18.60
2023-05-25T22:38:02.871Z,18.50
2023-05-25T22:40:33.755Z,18.30
2023-05-25T22:43:03.387Z,18.00
2023-05-25T22:45:36.098Z,18.00
2023-05-25T22:48:06.267Z,17.90
2023-05-25T22:50:44.278Z,18.00
2023-05-25T22:53:11.770Z,18.10
2023-05-25T22:55:40.685Z,18.00
2023-05-25T22:58:10.350Z,18.00
2023-05-25T23:00:39.921Z,18.00
2023-05-25T23:03:10.388Z,18.00
2023-05-25T23:05:40.036Z,17.80
2023-05-25T23:08:09.194Z,17.60
2023-05-25T23:10:40.771Z,17.50
2023-05-25T23:13:11.300Z,17.50
2023-05-25T23:15:40.177Z,17.50
2023-05-25T23:18:11.444Z,17.40
2023-05-25T23:20:41.536Z,17.80
2023-05-25T23:23:12.132Z,17.90
2023-05-25T23:25:40.866Z,18.00
2023-05-25T23:28:10.858Z,18.00
2023-05-25T23:30:40.126Z,17.80
2023-05-25T23:33:13.913Z,17.80
2023-05-25T23:35:49.847Z,17.60
2023-05-25T23:38:19.012Z,17.70
2023-05-25T23:40:56.140Z,17.70
2023-05-25T23:43:28.534Z,17.70
2023-05-25T23:45:56.900Z,17.90
2023-05-25T23:48:24.724Z,18.00
2023-05-25T23:50:54.962Z,18.10
2023-05-25T23:53:38.361Z,18.00
2023-05-25T23:56:07.589Z,18.00
2023-05-25T23:58:43.719Z,18.00
